Time;durP1;ratioP1;P1;durP2;ratioP2;P2;SDS_P1;SDS_P2;PMS_P1;PMS_P2;Temp;Humidity;BMP_temperature;BMP_pressure;BME280_temperature;BME280_humidity;BME280_pressure;Samples;Min_cycle;Max_cycle;Signal;HPM_P1;HPM_P2
2022/09/13 00:02:17;;;;;;;13.18;11.85;;;17.50;97.40;;;;;;5019781;28;20043;-53
2022/09/13 00:05:03;;;;;;;13.15;11.95;;;17.50;97.40;;;;;;5019815;28;20025;-50
2022/09/13 00:07:49;;;;;;;15.43;12.63;;;17.40;97.10;;;;;;5026630;28;20072;-53
2022/09/13 00:10:37;;;;;;;13.48;12.07;;;17.40;97.10;;;;;;5026170;28;20025;-55
2022/09/13 00:13:23;;;;;;;13.20;11.95;;;17.30;97.40;;;;;;5023519;28;20025;-55
2022/09/13 00:16:14;;;;;;;13.45;12.15;;;17.20;97.40;;;;;;5025398;28;20025;-54
2022/09/13 00:19:00;;;;;;;13.90;12.50;;;17.10;97.60;;;;;;5022864;28;20018;-54
2022/09/13 00:21:47;;;;;;;13.23;11.88;;;17.10;97.60;;;;;;4990315;28;20041;-56
2022/09/13 00:24:33;;;;;;;15.43;12.07;;;17.10;97.60;;;;;;5022045;28;20048;-55
2022/09/13 00:27:19;;;;;;;14.45;13.00;;;17.10;97.70;;;;;;5024288;28;20018;-52
2022/09/13 00:30:06;;;;;;;13.65;12.15;;;17.00;97.70;;;;;;5021844;28;20379;-52
2022/09/13 00:32:53;;;;;;;15.13;13.52;;;17.00;97.90;;;;;;5021610;28;20401;-56
2022/09/13 00:35:39;;;;;;;14.40;12.93;;;17.00;97.80;;;;;;5026932;28;20057;-52
2022/09/13 00:38:25;;;;;;;14.02;12.73;;;16.90;97.90;;;;;;5019476;28;20160;-56
2022/09/13 00:41:14;;;;;;;15.60;13.77;;;16.90;97.90;;;;;;5020365;28;20056;-52
2022/09/13 00:44:01;;;;;;;14.02;12.65;;;16.90;97.90;;;;;;5024662;28;20068;-56
2022/09/13 00:46:49;;;;;;;17.02;13.52;;;16.90;98.10;;;;;;5030562;28;20097;-56
2022/09/13 00:49:38;;;;;;;14.70;13.10;;;16.80;98.10;;;;;;5016754;28;20025;-53
2022/09/13 00:52:26;;;;;;;15.13;13.68;;;16.80;98.00;;;;;;5014563;28;20029;-53
2022/09/13 00:55:48;;;;;;;13.20;11.90;;;16.80;98.20;;;;;;5015787;28;20068;-52
2022/09/13 00:58:57;;;;;;;14.57;13.07;;;16.80;98.20;;;;;;5030147;28;20026;-52
2022/09/13 01:01:52;;;;;;;14.48;12.98;;;16.80;98.10;;;;;;5029284;28;20092;-53
2022/09/13 01:04:38;;;;;;;;;;;16.80;98.50;;;;;;5015769;28;20507;-53
2022/09/13 01:07:24;;;;;;;14.93;13.45;;;16.70;98.20;;;;;;5032063;28;19924;-51
2022/09/13 01:10:10;;;;;;;14.10;12.77;;;16.60;98.40;;;;;;5032601;28;20400;-51
2022/09/13 01:13:13;;;;;;;14.23;12.93;;;16.60;98.80;;;;;;5032172;28;20041;-51
2022/09/13 01:16:00;;;;;;;12.60;11.50;;;16.50;99.10;;;;;;5033617;28;20017;-57
2022/09/13 01:18:46;;;;;;;12.00;10.90;;;16.50;99.40;;;;;;5033432;28;20537;-49
2022/09/13 01:22:16;;;;;;;12.70;11.50;;;16.50;99.60;;;;;;5031781;28;20112;-53
2022/09/13 01:25:23;;;;;;;12.00;10.93;;;16.50;99.80;;;;;;5022598;28;20091;-56
2022/09/13 01:28:24;;;;;;;12.45;11.25;;;16.50;99.90;;;;;;5033990;28;20030;-55
2022/09/13 01:31:24;;;;;;;12.48;11.27;;;16.50;99.90;;;;;;5033356;28;20095;-55
2022/09/13 01:34:19;;;;;;;12.90;11.70;;;16.50;99.90;;;;;;5034084;28;20021;-56
2022/09/13 01:38:01;;;;;;;14.70;13.25;;;16.50;99.90;;;;;;5034309;28;20026;-51
2022/09/13 01:41:05;;;;;;;12.55;11.32;;;16.40;99.90;;;;;;4972989;28;20106;-54
2022/09/13 01:44:06;;;;;;;13.70;12.30;;;16.40;99.90;;;;;;4982982;28;20057;-49
2022/09/13 01:47:26;;;;;;;14.70;13.30;;;16.40;99.90;;;;;;5030003;28;20025;-53
2022/09/13 01:50:23;;;;;;;14.63;13.10;;;16.40;99.90;;;;;;5020072;28;20022;-48
2022/09/13 01:53:38;;;;;;;13.32;12.13;;;16.30;99.90;;;;;;5013105;28;20034;-52
2022/09/13 01:56:32;;;;;;;14.73;13.23;;;16.30;99.90;;;;;;5013834;28;20025;-50
2022/09/13 01:59:48;;;;;;;15.43;14.05;;;16.20;99.90;;;;;;5012508;28;20052;-54
2022/09/13 02:03:01;;;;;;;14.00;12.70;;;16.20;99.90;;;;;;5017986;28;20022;-53
2022/09/13 02:06:07;;;;;;;13.95;12.55;;;16.20;99.90;;;;;;5032871;28;20033;-55
2022/09/13 02:08:59;;;;;;;13.68;12.38;;;16.10;99.90;;;;;;5032514;28;20025;-53
2022/09/13 02:11:50;;;;;;;14.18;12.80;;;16.10;99.90;;;;;;5031772;28;20030;-51
2022/09/13 02:14:40;;;;;;;14.07;12.77;;;16.10;99.90;;;;;;5032094;28;20493;-50
2022/09/13 02:17:31;;;;;;;15.02;13.52;;;16.10;99.90;;;;;;5025765;28;20048;-54
2022/09/13 02:20:29;;;;;;;15.10;13.60;;;16.10;99.90;;;;;;5033075;28;20025;-53
2022/09/13 02:23:38;;;;;;;15.60;14.10;;;16.10;99.90;;;;;;5032071;28;20488;-52
2022/09/13 02:26:27;;;;;;;15.05;13.55;;;16.10;99.90;;;;;;5033176;28;20026;-55
2022/09/13 02:29:18;;;;;;;16.10;14.40;;;16.00;99.90;;;;;;5032986;28;20037;-54
2022/09/13 02:32:32;;;;;;;14.65;13.15;;;15.90;99.90;;;;;;5031876;28;20022;-56
2022/09/13 02:35:25;;;;;;;15.38;13.77;;;15.90;99.90;;;;;;5032202;28;20025;-55
2022/09/13 02:38:44;;;;;;;14.70;13.07;;;15.80;99.90;;;;;;5029618;28;20026;-54
2022/09/13 02:41:34;;;;;;;14.35;12.77;;;15.80;99.90;;;;;;5011729;28;20065;-53
2022/09/13 02:44:37;;;;;;;13.70;12.40;;;15.70;99.90;;;;;;5011723;28;20037;-53
2022/09/13 02:47:38;;;;;;;14.48;12.82;;;15.70;99.90;;;;;;5012785;28;20083;-52
2022/09/13 02:51:08;;;;;;;14.48;13.13;;;15.70;99.90;;;;;;5011373;28;20022;-52
2022/09/13 02:54:09;;;;;;;13.27;11.98;;;15.70;99.90;;;;;;5005593;28;20080;-52
2022/09/13 02:57:00;;;;;;;14.35;12.77;;;15.80;99.90;;;;;;5011237;28;20072;-51
2022/09/13 02:59:48;;;;;;;13.77;12.48;;;15.80;99.90;;;;;;5013057;28;20018;-54
2022/09/13 03:02:35;;;;;;;14.90;13.15;;;15.70;99.90;;;;;;5030824;28;20034;-53
2022/09/13 03:05:21;;;;;;;16.13;13.38;;;15.70;99.90;;;;;;5031308;28;20029;-54
2022/09/13 03:08:09;;;;;;;14.57;13.07;;;15.70;99.90;;;;;;5032070;28;20035;-57
2022/09/13 03:11:01;;;;;;;14.73;13.38;;;15.60;99.90;;;;;;5018460;28;20573;-56
2022/09/13 03:14:06;;;;;;;14.98;13.07;;;15.60;99.90;;;;;;5024298;28;20022;-55
2022/09/13 03:17:13;;;;;;;12.68;11.50;;;15.50;99.90;;;;;;5025651;28;20014;-53
2022/09/13 03:20:23;;;;;;;13.88;12.57;;;15.50;99.90;;;;;;5031037;28;20401;-51
2022/09/13 03:23:38;;;;;;;15.55;13.75;;;15.50;99.90;;;;;;5031059;28;20530;-54
2022/09/13 03:26:43;;;;;;;15.05;13.02;;;15.50;99.90;;;;;;5031194;28;20025;-55
2022/09/13 03:29:32;;;;;;;14.45;13.05;;;15.60;99.90;;;;;;5029793;28;20026;-55
2022/09/13 03:33:02;;;;;;;14.50;13.10;;;15.60;99.90;;;;;;5031063;28;20069;-52
2022/09/13 03:36:06;;;;;;;14.52;13.20;;;15.50;99.90;;;;;;5030880;28;20030;-50
2022/09/13 03:39:12;;;;;;;14.13;12.63;;;15.50;99.90;;;;;;5022533;28;20502;-51
2022/09/13 03:42:06;;;;;;;16.00;13.70;;;15.60;99.90;;;;;;5009598;28;20500;-51
2022/09/13 03:44:56;;;;;;;19.27;16.05;;;15.60;99.90;;;;;;5011539;28;20017;-53
2022/09/13 03:47:44;;;;;;;16.00;14.00;;;15.60;99.90;;;;;;5010412;28;20109;-50
2022/09/13 03:50:30;;;;;;;14.98;13.48;;;15.50;99.90;;;;;;5010075;28;20030;-55
2022/09/13 03:53:22;;;;;;;15.02;13.52;;;15.50;99.90;;;;;;5009876;28;20029;-54
2022/09/13 03:56:16;;;;;;;16.58;14.60;;;15.50;99.90;;;;;;4996617;28;20042;-55
2022/09/13 03:59:02;;;;;;;17.20;15.23;;;15.40;99.90;;;;;;5010580;28;20030;-57
2022/09/13 04:01:48;;;;;;;15.32;13.82;;;15.40;99.90;;;;;;5027391;28;20114;-54
2022/09/13 04:04:34;;;;;;;15.75;14.05;;;15.40;99.90;;;;;;5030418;28;20044;-50
2022/09/13 04:07:23;;;;;;;18.52;15.48;;;15.40;99.90;;;;;;5029278;28;20022;-53
2022/09/13 04:10:09;;;;;;;16.45;14.65;;;15.40;99.90;;;;;;5030485;28;20029;-55
2022/09/13 04:12:55;;;;;;;16.13;13.00;;;15.40;99.90;;;;;;5030111;28;20033;-52
2022/09/13 04:15:42;;;;;;;18.05;15.60;;;15.40;99.90;;;;;;5029792;28;20029;-54
2022/09/13 04:18:29;;;;;;;15.32;13.82;;;15.40;99.90;;;;;;5014821;28;20022;-55
2022/09/13 04:21:15;;;;;;;16.98;13.63;;;15.40;99.90;;;;;;5029262;28;20040;-50
2022/09/13 04:24:01;;;;;;;17.55;12.90;;;15.50;99.90;;;;;;5029892;28;20089;-50
2022/09/13 04:26:52;;;;;;;16.30;12.93;;;15.40;99.90;;;;;;5029804;28;20097;-52
2022/09/13 04:29:38;;;;;;;14.80;13.40;;;15.30;99.90;;;;;;5029666;28;20022;-51
2022/09/13 04:32:24;;;;;;;14.27;12.88;;;15.30;99.90;;;;;;5028395;28;20022;-55
2022/09/13 04:35:10;;;;;;;14.18;12.68;;;15.30;99.90;;;;;;5029559;28;20025;-50
2022/09/13 04:37:59;;;;;;;14.63;13.20;;;15.40;99.90;;;;;;5029353;28;20115;-52
2022/09/13 04:40:52;;;;;;;16.92;14.15;;;15.40;99.90;;;;;;5029934;28;20104;-52
2022/09/13 04:43:38;;;;;;;17.05;15.23;;;15.40;99.90;;;;;;5020474;28;20041;-51
2022/09/13 04:46:24;;;;;;;32.50;21.80;;;15.50;99.90;;;;;;5034763;28;20112;-51
2022/09/13 04:49:10;;;;;;;22.98;18.52;;;15.50;99.90;;;;;;5034905;28;20456;-53
2022/09/13 04:51:56;;;;;;;17.92;15.85;;;15.50;99.90;;;;;;5033983;28;20103;-54
2022/09/13 04:54:42;;;;;;;18.67;14.25;;;15.50;99.90;;;;;;5034496;28;20040;-51
2022/09/13 04:57:28;;;;;;;15.30;13.70;;;15.60;99.90;;;;;;5033854;28;20060;-55
2022/09/13 05:00:14;;;;;;;17.17;14.88;;;15.60;99.90;;;;;;5033332;28;20501;-55
2022/09/13 05:03:00;;;;;;;16.83;15.13;;;15.40;99.90;;;;;;5000226;28;20498;-55
2022/09/13 05:05:46;;;;;;;17.90;14.23;;;15.30;99.90;;;;;;5013882;28;20020;-53
2022/09/13 05:08:33;;;;;;;21.23;15.15;;;15.40;99.90;;;;;;5013925;28;20033;-56
2022/09/13 05:11:19;;;;;;;17.77;14.63;;;15.30;99.90;;;;;;5012712;28;20034;-56
2022/09/13 05:14:05;;;;;;;15.98;13.55;;;15.40;99.90;;;;;;5033007;28;20094;-56
2022/09/13 05:16:51;;;;;;;15.73;14.15;;;15.50;99.90;;;;;;5026222;28;20108;-57
2022/09/13 05:19:37;;;;;;;17.15;14.52;;;15.60;99.90;;;;;;5033899;28;20129;-54
2022/09/13 05:22:23;;;;;;;15.82;13.60;;;15.70;99.90;;;;;;5032239;28;20453;-54
2022/09/13 05:25:09;;;;;;;16.33;14.07;;;15.70;99.90;;;;;;5032863;28;20033;-54
2022/09/13 05:27:55;;;;;;;17.98;14.10;;;15.70;99.90;;;;;;5033253;28;20026;-52
2022/09/13 05:30:41;;;;;;;17.83;14.93;;;15.80;99.90;;;;;;5013790;28;20053;-53
2022/09/13 05:33:30;;;;;;;26.83;21.40;;;15.80;99.90;;;;;;5017809;28;20080;-54
2022/09/13 05:36:17;;;;;;;48.53;20.83;;;15.90;99.90;;;;;;5024119;28;20680;-55
2022/09/13 05:39:04;;;;;;;24.15;13.63;;;15.90;99.90;;;;;;5023507;28;20417;-52
2022/09/13 05:41:50;;;;;;;17.75;12.73;;;15.90;99.90;;;;;;5032123;28;20041;-54
2022/09/13 05:44:36;;;;;;;13.65;11.73;;;16.00;99.90;;;;;;5032332;28;20029;-51
2022/09/13 05:47:22;;;;;;;16.48;13.13;;;15.90;99.90;;;;;;5019213;28;20029;-54
2022/09/13 05:50:09;;;;;;;16.35;14.57;;;15.90;99.90;;;;;;5031979;28;20540;-55
2022/09/13 05:52:55;;;;;;;16.65;12.25;;;15.90;99.90;;;;;;5030436;28;20092;-51
2022/09/13 05:55:41;;;;;;;17.75;13.73;;;15.90;99.90;;;;;;5031413;28;20033;-51
2022/09/13 05:58:27;;;;;;;17.05;13.98;;;15.90;99.90;;;;;;5033424;28;20030;-52
2022/09/13 06:01:15;;;;;;;15.60;13.90;;;15.70;99.90;;;;;;5028677;28;20429;-53
2022/09/13 06:04:01;;;;;;;15.90;13.25;;;15.50;99.90;;;;;;5028602;28;20652;-51
2022/09/13 06:06:47;;;;;;;17.98;13.35;;;15.50;99.90;;;;;;5028631;28;20029;-51
2022/09/13 06:09:33;;;;;;;15.10;13.50;;;15.50;99.90;;;;;;5026007;28;20579;-51
2022/09/13 06:12:19;;;;;;;18.75;15.27;;;15.50;99.90;;;;;;5030639;28;20033;-54
2022/09/13 06:15:05;;;;;;;16.92;14.65;;;15.60;99.90;;;;;;5035189;28;20065;-54
2022/09/13 06:17:51;;;;;;;16.88;13.93;;;15.70;99.90;;;;;;5032399;28;20412;-54
2022/09/13 06:20:37;;;;;;;27.60;20.50;;;15.70;99.90;;;;;;5030832;28;20526;-53
2022/09/13 06:23:23;;;;;;;17.70;15.32;;;15.80;99.90;;;;;;5028479;28;20435;-49
2022/09/13 06:26:14;;;;;;;17.90;14.15;;;15.80;99.90;;;;;;5024598;28;20100;-58
2022/09/13 06:29:00;;;;;;;16.67;13.30;;;15.80;99.90;;;;;;5022699;28;20405;-54
2022/09/13 06:31:46;;;;;;;17.65;13.30;;;15.80;99.90;;;;;;5022813;28;20029;-55
2022/09/13 06:34:32;;;;;;;43.00;28.80;;;15.90;99.90;;;;;;5030379;28;20279;-53
2022/09/13 06:37:18;;;;;;;70.05;44.63;;;15.90;99.90;;;;;;5028120;28;20216;-54
2022/09/13 06:40:05;;;;;;;40.05;25.50;;;16.00;99.90;;;;;;5032123;28;20025;-56
2022/09/13 06:42:51;;;;;;;53.67;29.77;;;16.10;99.90;;;;;;5024471;28;20034;-52
2022/09/13 06:45:37;;;;;;;48.50;23.75;;;16.00;99.90;;;;;;5027090;28;20018;-55
2022/09/13 06:48:23;;;;;;;41.50;18.75;;;16.10;99.90;;;;;;5030095;28;20022;-54
2022/09/13 06:51:14;;;;;;;19.27;13.07;;;16.10;99.90;;;;;;5030183;28;20521;-52
2022/09/13 06:54:02;;;;;;;23.08;13.80;;;16.20;99.90;;;;;;5028282;28;20505;-54
2022/09/13 06:56:48;;;;;;;27.00;14.18;;;16.20;99.90;;;;;;5012317;28;20129;-54
2022/09/13 06:59:34;;;;;;;18.80;11.85;;;16.20;99.90;;;;;;5027758;28;20498;-49
2022/09/13 07:02:28;;;;;;;18.67;14.23;;;16.30;99.90;;;;;;5014501;28;20155;-55
2022/09/13 07:05:23;;;;;;;16.23;13.00;;;16.30;99.90;;;;;;5031232;28;20082;-56
2022/09/13 07:08:09;;;;;;;16.77;13.15;;;16.30;99.90;;;;;;5027069;28;20063;-56
2022/09/13 07:10:58;;;;;;;23.77;18.25;;;16.40;99.90;;;;;;5030828;28;20029;-48
2022/09/13 07:13:52;;;;;;;15.95;13.50;;;16.40;99.90;;;;;;5015681;28;20030;-54
2022/09/13 07:16:39;;;;;;;15.90;12.40;;;16.50;99.90;;;;;;5024351;28;20604;-54
2022/09/13 07:19:27;;;;;;;17.45;12.52;;;16.50;99.90;;;;;;5023622;28;20656;-50
2022/09/13 07:22:12;;;;;;;15.52;12.63;;;16.70;99.90;;;;;;5030202;28;20084;-55
2022/09/13 07:24:59;;;;;;;15.55;13.63;;;16.80;99.90;;;;;;5030356;28;20036;-53
2022/09/13 07:27:45;;;;;;;23.83;19.17;;;17.00;99.90;;;;;;5018740;28;20046;-54
2022/09/13 07:30:32;;;;;;;30.33;23.55;;;17.10;99.90;;;;;;5031700;28;20025;-53
2022/09/13 07:33:19;;;;;;;23.42;19.00;;;17.10;99.90;;;;;;5032628;28;20029;-54
2022/09/13 07:36:06;;;;;;;17.77;15.75;;;17.20;99.90;;;;;;5031036;28;20511;-53
2022/09/13 07:38:52;;;;;;;16.50;13.88;;;17.20;99.90;;;;;;5019126;28;20505;-48
2022/09/13 07:41:38;;;;;;;17.67;15.77;;;17.20;99.90;;;;;;5020821;28;20045;-52
2022/09/13 07:44:24;;;;;;;23.92;18.05;;;17.20;99.90;;;;;;5010855;28;20022;-50
2022/09/13 07:47:10;;;;;;;20.27;16.73;;;17.20;99.90;;;;;;5018772;28;20429;-54
2022/09/13 07:49:56;;;;;;;15.50;13.43;;;17.20;99.90;;;;;;5004660;28;20496;-49
2022/09/13 07:52:43;;;;;;;14.68;12.68;;;17.30;99.90;;;;;;5032812;28;20116;-55
2022/09/13 07:55:30;;;;;;;13.48;11.63;;;17.30;99.90;;;;;;5035087;28;20036;-53
2022/09/13 07:58:16;;;;;;;12.63;11.32;;;17.40;99.90;;;;;;5034199;28;20041;-52
2022/09/13 08:01:21;;;;;;;12.88;11.38;;;17.50;99.90;;;;;;5031907;28;20108;-50
2022/09/13 08:04:08;;;;;;;;;;;17.70;99.90;;;;;;5018833;28;20034;-48
2022/09/13 08:06:54;;;;;;;12.68;11.02;;;17.80;99.90;;;;;;5029811;28;20285;-53
2022/09/13 08:09:40;;;;;;;12.27;10.90;;;17.90;99.90;;;;;;5030447;28;20028;-52
2022/09/13 08:12:26;;;;;;;12.82;11.38;;;17.90;99.90;;;;;;5029552;28;20041;-50
2022/09/13 08:15:12;;;;;;;12.50;10.65;;;17.80;99.90;;;;;;5015605;28;20037;-52
2022/09/13 08:17:58;;;;;;;14.02;11.15;;;17.90;99.90;;;;;;5030752;28;20112;-52
2022/09/13 08:20:44;;;;;;;11.57;10.20;;;17.90;99.90;;;;;;5030296;28;20026;-50
2022/09/13 08:23:32;;;;;;;11.93;10.73;;;17.90;99.90;;;;;;5030323;28;20033;-54
2022/09/13 08:26:18;;;;;;;11.38;10.00;;;17.90;99.90;;;;;;5017847;28;20026;-48
2022/09/13 08:29:06;;;;;;;12.10;10.90;;;17.90;99.90;;;;;;5030748;28;20040;-49
2022/09/13 08:31:52;;;;;;;12.20;10.57;;;17.90;99.90;;;;;;5015535;28;20029;-49
2022/09/13 08:34:38;;;;;;;15.15;11.50;;;18.00;99.90;;;;;;5030621;28;20076;-49
2022/09/13 08:37:24;;;;;;;13.50;10.57;;;18.00;99.90;;;;;;5029659;28;20038;-48
2022/09/13 08:40:10;;;;;;;13.70;11.07;;;18.00;99.90;;;;;;5030791;28;20087;-53
2022/09/13 08:43:17;;;;;;;16.95;11.70;;;18.10;99.90;;;;;;5016521;28;20072;-49
2022/09/13 08:46:21;;;;;;;13.80;10.43;;;18.20;99.90;;;;;;5030322;28;20093;-49
2022/09/13 08:49:18;;;;;;;14.13;10.98;;;18.20;99.90;;;;;;5030630;28;20049;-47
2022/09/13 08:52:25;;;;;;;12.23;10.93;;;18.30;99.90;;;;;;5028632;28;20026;-52
2022/09/13 08:55:31;;;;;;;12.63;11.32;;;18.40;99.90;;;;;;5030200;28;20021;-49
2022/09/13 08:58:35;;;;;;;13.98;10.35;;;18.50;99.90;;;;;;5001300;28;20441;-52
2022/09/13 09:01:27;;;;;;;12.25;10.88;;;18.70;99.90;;;;;;5029750;28;20029;-53
2022/09/13 09:04:28;;;;;;;17.88;10.93;;;18.90;99.90;;;;;;5030404;28;20028;-51
2022/09/13 09:07:22;;;;;;;11.43;10.43;;;19.10;99.90;;;;;;5030509;28;20029;-56
2022/09/13 09:10:19;;;;;;;11.50;10.30;;;19.20;99.90;;;;;;5029557;28;20025;-49
2022/09/13 09:13:14;;;;;;;10.88;9.85;;;19.20;99.90;;;;;;5029730;28;20068;-54
2022/09/13 09:16:02;;;;;;;10.70;9.60;;;19.20;99.90;;;;;;5026463;28;20030;-49
2022/09/13 09:18:48;;;;;;;12.07;9.25;;;19.40;99.90;;;;;;5029250;28;20031;-49
2022/09/13 09:21:36;;;;;;;10.38;8.65;;;19.50;99.80;;;;;;5028377;28;20037;-48
2022/09/13 09:24:24;;;;;;;10.32;7.85;;;19.60;99.70;;;;;;5022872;28;20030;-51
2022/09/13 09:27:15;;;;;;;9.77;7.85;;;19.70;99.40;;;;;;5010214;28;20104;-50
2022/09/13 09:30:02;;;;;;;9.88;8.25;;;19.70;99.40;;;;;;5014500;28;20026;-54
2022/09/13 09:32:51;;;;;;;10.30;8.45;;;19.80;99.10;;;;;;5018630;28;20038;-54
2022/09/13 09:36:04;;;;;;;7.97;7.25;;;19.80;99.10;;;;;;5032252;28;20025;-50
2022/09/13 09:38:50;;;;;;;8.73;7.80;;;19.90;98.60;;;;;;5032338;28;20036;-53
2022/09/13 09:41:37;;;;;;;7.90;7.10;;;20.20;98.30;;;;;;5031685;28;20033;-50
2022/09/13 09:44:27;;;;;;;8.50;7.55;;;20.20;97.90;;;;;;5032670;28;20037;-51
2022/09/13 09:47:17;;;;;;;8.43;7.65;;;20.30;97.70;;;;;;5005635;28;20033;-48
2022/09/13 09:50:28;;;;;;;9.95;7.82;;;20.30;96.90;;;;;;5031888;28;20043;-48
2022/09/13 09:53:27;;;;;;;8.38;7.57;;;20.30;97.00;;;;;;5032706;28;20095;-55
2022/09/13 09:56:19;;;;;;;9.35;7.70;;;20.40;96.60;;;;;;5031851;28;20026;-50
2022/09/13 09:59:25;;;;;;;10.85;7.70;;;20.50;96.50;;;;;;5031949;28;20048;-51
2022/09/13 10:02:16;;;;;;;8.77;7.47;;;20.60;96.10;;;;;;5031625;28;20033;-55
2022/09/13 10:05:03;;;;;;;9.73;8.38;;;20.60;96.00;;;;;;5032879;28;20068;-52
2022/09/13 10:08:01;;;;;;;9.50;7.75;;;20.70;95.90;;;;;;5032191;28;20034;-52
2022/09/13 10:10:53;;;;;;;9.82;7.60;;;20.80;95.70;;;;;;5012935;28;20034;-52
2022/09/13 10:14:00;;;;;;;8.73;7.68;;;20.90;95.70;;;;;;5018192;28;20037;-54
2022/09/13 10:16:46;;;;;;;9.85;7.35;;;21.00;95.20;;;;;;5032547;28;20028;-53
2022/09/13 10:19:33;;;;;;;10.60;7.13;;;20.90;95.10;;;;;;5035234;28;20033;-50
2022/09/13 10:22:20;;;;;;;8.82;7.13;;;20.90;95.10;;;;;;5018258;28;20034;-51
2022/09/13 10:25:22;;;;;;;8.82;6.50;;;20.90;95.10;;;;;;5031767;28;20029;-51
2022/09/13 10:28:15;;;;;;;8.82;6.75;;;21.00;95.20;;;;;;5026909;28;20029;-50
2022/09/13 10:31:10;;;;;;;8.32;6.95;;;21.00;94.90;;;;;;5032421;28;20071;-52
2022/09/13 10:34:15;;;;;;;7.30;6.40;;;21.00;94.80;;;;;;5002167;28;20030;-54
2022/09/13 10:37:13;;;;;;;7.15;6.05;;;21.10;94.60;;;;;;5019958;28;20034;-55
2022/09/13 10:40:24;;;;;;;9.32;6.68;;;21.10;94.70;;;;;;5030918;28;20032;-53
2022/09/13 10:43:15;;;;;;;7.95;7.15;;;21.20;94.90;;;;;;5030653;28;20100;-52
2022/09/13 10:46:04;;;;;;;8.65;6.40;;;21.30;94.10;;;;;;5031616;28;20076;-52
2022/09/13 10:48:54;;;;;;;12.10;7.82;;;21.40;94.30;;;;;;5030982;28;20509;-53
2022/09/13 10:51:40;;;;;;;7.28;6.50;;;21.50;94.30;;;;;;5030615;28;20034;-55
2022/09/13 10:54:27;;;;;;;10.82;6.97;;;21.60;93.90;;;;;;5032491;28;20030;-51
2022/09/13 10:57:31;;;;;;;7.00;6.25;;;21.70;94.10;;;;;;5030540;28;20030;-54
2022/09/13 11:00:31;;;;;;;9.75;6.28;;;21.90;93.50;;;;;;5031623;28;20026;-55
2022/09/13 11:03:35;;;;;;;9.77;5.32;;;22.10;93.40;;;;;;5031866;28;20657;-55
2022/09/13 11:06:36;;;;;;;7.15;5.75;;;22.30;92.80;;;;;;5031936;28;20064;-52
2022/09/13 11:09:52;;;;;;;8.32;5.78;;;22.20;92.30;;;;;;5032069;28;20013;-56
2022/09/13 11:12:42;;;;;;;8.27;5.22;;;22.40;92.20;;;;;;5032611;28;20505;-54
2022/09/13 11:15:36;;;;;;;6.72;5.72;;;22.60;92.00;;;;;;5017263;28;20460;-54
2022/09/13 11:18:34;;;;;;;7.97;5.72;;;22.70;91.80;;;;;;5031156;28;20310;-47
2022/09/13 11:21:55;;;;;;;7.57;5.15;;;22.80;91.30;;;;;;5030851;28;20030;-55
2022/09/13 11:25:01;;;;;;;7.60;5.75;;;22.50;91.80;;;;;;5031773;28;20021;-54
2022/09/13 11:28:03;;;;;;;10.70;5.65;;;22.60;91.30;;;;;;5031619;28;20028;-54
2022/09/13 11:31:14;;;;;;;5.95;4.90;;;22.60;91.90;;;;;;5031749;28;20600;-53
2022/09/13 11:35:03;;;;;;;8.27;4.80;;;22.80;91.70;;;;;;5032237;28;20033;-49
2022/09/13 11:37:52;;;;;;;13.02;5.30;;;23.10;91.10;;;;;;4971323;28;20034;-55
2022/09/13 11:41:15;;;;;;;7.65;5.32;;;23.20;91.10;;;;;;5014727;28;20022;-53
2022/09/13 11:44:27;;;;;;;7.65;5.05;;;23.30;90.90;;;;;;5013935;28;20109;-54
2022/09/13 11:47:50;;;;;;;8.27;5.05;;;23.20;90.50;;;;;;5030715;28;20017;-59
2022/09/13 11:51:15;;;;;;;6.40;5.60;;;23.20;90.40;;;;;;5034251;28;20025;-57
2022/09/13 11:54:26;;;;;;;9.77;5.22;;;23.50;90.40;;;;;;5031320;28;20521;-51
2022/09/13 11:57:38;;;;;;;6.70;4.75;;;23.40;90.30;;;;;;5035883;28;20029;-50
2022/09/13 12:00:39;;;;;;;6.45;5.15;;;23.30;90.70;;;;;;5030817;28;20017;-55
2022/09/13 12:03:50;;;;;;;6.05;5.45;;;23.40;90.80;;;;;;5032004;28;20029;-53
2022/09/13 12:06:47;;;;;;;8.43;5.70;;;23.40;90.80;;;;;;5033652;28;20397;-55
2022/09/13 12:09:45;;;;;;;6.95;5.00;;;23.30;90.80;;;;;;5030211;28;20021;-54
2022/09/13 12:12:34;;;;;;;5.65;5.13;;;23.40;91.00;;;;;;5029936;28;20034;-56
2022/09/13 12:15:38;;;;;;;7.90;5.38;;;23.50;91.00;;;;;;5016810;28;20049;-52
2022/09/13 12:18:36;;;;;;;7.80;5.25;;;23.60;90.90;;;;;;5024817;28;20109;-53
2022/09/13 12:21:27;;;;;;;6.05;5.45;;;23.60;90.70;;;;;;5033232;28;20034;-52
2022/09/13 12:24:27;;;;;;;7.38;5.32;;;23.40;90.90;;;;;;5033805;28;20492;-54
2022/09/13 12:27:30;;;;;;;6.72;5.28;;;23.40;91.10;;;;;;5037340;28;20017;-49
2022/09/13 12:30:22;;;;;;;5.65;4.90;;;23.40;90.90;;;;;;5040127;28;20024;-51
2022/09/13 12:33:14;;;;;;;12.15;5.57;;;23.40;91.00;;;;;;5040096;28;20029;-53
2022/09/13 12:36:32;;;;;;;6.82;5.13;;;23.30;90.90;;;;;;5032113;28;20049;-51
2022/09/13 12:39:24;;;;;;;7.80;6.03;;;23.30;90.90;;;;;;5029267;28;20076;-56
2022/09/13 12:42:37;;;;;;;7.32;5.10;;;23.30;91.00;;;;;;5029199;28;20036;-51
2022/09/13 12:45:41;;;;;;;6.40;5.50;;;23.40;90.70;;;;;;5030022;28;20021;-57
2022/09/13 12:48:48;;;;;;;8.68;5.65;;;23.40;90.90;;;;;;5029845;28;20083;-53
2022/09/13 12:51:50;;;;;;;10.48;5.88;;;23.60;90.40;;;;;;5011182;28;20956;-55
2022/09/13 12:55:05;;;;;;;7.78;5.55;;;23.60;90.50;;;;;;5033526;28;20036;-51
2022/09/13 12:58:12;;;;;;;6.03;5.43;;;23.60;90.60;;;;;;5006033;28;20577;-52
2022/09/13 13:01:04;;;;;;;12.00;5.38;;;23.60;90.50;;;;;;5008487;28;20029;-53
2022/09/13 13:03:55;;;;;;;5.70;5.07;;;23.90;90.30;;;;;;5033036;28;20080;-55
2022/09/13 13:06:52;;;;;;;8.60;5.28;;;24.20;90.30;;;;;;5033968;28;20153;-56
2022/09/13 13:09:43;;;;;;;5.88;5.30;;;24.60;89.70;;;;;;5033759;28;20028;-52
2022/09/13 13:12:36;;;;;;;10.57;5.70;;;24.60;89.50;;;;;;5034242;28;20041;-55
2022/09/13 13:15:25;;;;;;;6.22;5.30;;;24.80;89.00;;;;;;5034263;28;20032;-52
2022/09/13 13:18:21;;;;;;;6.30;5.15;;;24.80;88.70;;;;;;5031819;28;20026;-54
2022/09/13 13:21:37;;;;;;;11.10;6.45;;;24.60;89.10;;;;;;5032298;28;20029;-55
2022/09/13 13:24:26;;;;;;;7.28;5.40;;;24.50;89.10;;;;;;5032925;28;20025;-52
2022/09/13 13:27:36;;;;;;;6.60;4.70;;;24.50;89.00;;;;;;5017605;28;20021;-54
2022/09/13 13:30:40;;;;;;;10.02;5.28;;;24.70;88.70;;;;;;5016737;28;20038;-54
2022/09/13 13:33:28;;;;;;;8.80;5.83;;;25.20;87.30;;;;;;5031984;28;20026;-53
2022/09/13 13:36:32;;;;;;;6.88;5.65;;;25.10;87.50;;;;;;5018448;28;20087;-56
2022/09/13 13:39:23;;;;;;;7.35;6.28;;;24.80;88.00;;;;;;5033343;28;20033;-56
2022/09/13 13:42:26;;;;;;;6.68;5.65;;;24.60;88.90;;;;;;5031358;28;20045;-55
2022/09/13 13:45:20;;;;;;;7.30;5.20;;;24.40;89.40;;;;;;5033397;28;20583;-55
2022/09/13 13:48:08;;;;;;;5.90;5.03;;;24.20;89.50;;;;;;5032370;28;20173;-55
2022/09/13 13:51:12;;;;;;;8.70;4.93;;;24.10;89.60;;;;;;5031881;28;20026;-53
2022/09/13 13:54:04;;;;;;;5.43;4.93;;;24.10;89.50;;;;;;5033679;28;20067;-53
2022/09/13 13:56:50;;;;;;;5.82;4.63;;;24.10;89.00;;;;;;5033694;28;20037;-52
2022/09/13 13:59:37;;;;;;;5.97;4.90;;;24.10;89.30;;;;;;5019024;28;20033;-50
2022/09/13 14:02:33;;;;;;;6.72;4.80;;;24.00;89.70;;;;;;5032810;28;20514;-52
2022/09/13 14:05:50;;;;;;;5.25;4.45;;;24.10;89.50;;;;;;5013229;28;20397;-55
2022/09/13 14:09:00;;;;;;;5.68;4.53;;;24.20;89.20;;;;;;5022345;28;20028;-56
2022/09/13 14:11:54;;;;;;;5.20;4.70;;;24.10;89.60;;;;;;5031300;28;20090;-51
2022/09/13 14:14:49;;;;;;;7.43;4.43;;;23.90;89.80;;;;;;5030564;28;20041;-55
2022/09/13 14:17:54;;;;;;;5.80;4.20;;;23.90;90.00;;;;;;5031719;28;20028;-57
2022/09/13 14:20:59;;;;;;;5.53;4.47;;;24.00;89.40;;;;;;5020690;28;20428;-55
2022/09/13 14:23:45;;;;;;;8.10;4.80;;;24.00;89.80;;;;;;5030623;28;20456;-54
2022/09/13 14:26:31;;;;;;;6.53;5.13;;;24.00;89.60;;;;;;5015636;28;20026;-55
2022/09/13 14:29:20;;;;;;;6.35;5.35;;;23.90;89.70;;;;;;5027113;28;20057;-55
2022/09/13 14:32:12;;;;;;;7.47;6.55;;;23.90;90.30;;;;;;5027590;28;20037;-55
2022/09/13 14:35:02;;;;;;;8.57;7.30;;;23.70;90.80;;;;;;5025675;28;20107;-54
2022/09/13 14:37:48;;;;;;;11.15;7.88;;;23.50;91.10;;;;;;5018935;28;20048;-54
2022/09/13 14:40:34;;;;;;;8.93;7.93;;;23.30;91.40;;;;;;5036728;28;20058;-53
2022/09/13 14:43:23;;;;;;;11.13;7.80;;;23.20;91.50;;;;;;5027398;28;20067;-54
2022/09/13 14:46:15;;;;;;;8.82;7.85;;;23.20;91.70;;;;;;5000944;28;20056;-56
2022/09/13 14:49:06;;;;;;;11.40;7.30;;;23.10;91.80;;;;;;5032275;28;20076;-54
2022/09/13 14:52:09;;;;;;;9.65;7.70;;;23.10;91.80;;;;;;5024581;28;20053;-53